x

9410230 - La Jolla, Ca (ljac1) Weather Station

9:12pm - Mon 15th Oct 2018 All times are PDT. -7 hours from GMT.

  • Wind
    2mph, 8mph gusts
  • Sea Temp 65°f
  • Air Temp 71°f
  • Sea Pressure 1015.6mb
  • 9410230 - La Jolla, Ca
  • 9410230 - La Jolla, Ca

More Historic Weather Station data

Upgrade to MSW Pro to gain access to the past 30 days of data for over 8000 Wavebouys and Weather Stations around the globe.

Join

Comparision Forecast

View Surf forecast
   
Mon 10/15 9:12pm 2 8 mph 1015.6mb 65f 71f
9:06pm 5 8 mph 1015.6mb 65f 71f
9:00pm 7 9 mph - - -
8:54pm 7 9 mph 1015.7mb 64f 71f
8:48pm 5 9 mph 1015.7mb 65f 71f
8:42pm 7 9 mph 1015.7mb 64f 72f
8:36pm 8 10 mph 1015.6mb 64f 72f
8:30pm 8 10 mph 1015.6mb 64f 72f
8:24pm 8 10 mph 1015.6mb 64f 72f
8:18pm 9 11 mph 1015.5mb 64f 72f
8:12pm 9 11 mph 1015.6mb 63f 72f
8:06pm 9 13 mph 1015.5mb 64f 73f
8:00pm 8 10 mph - - -
7:54pm 7 9 mph 1015.3mb 64f 73f
7:48pm 8 11 mph 1015.3mb 64f 74f
7:42pm 7 11 mph 1015.2mb 64f 74f
7:36pm 8 14 mph 1015.1mb 64f 74f
7:30pm 9 13 mph 1015.1mb 64f 74f
7:24pm 8 11 mph 1015mb 64f 74f
7:18pm 7 11 mph 1015mb 64f 75f
7:12pm 8 11 mph 1014.9mb 65f 75f
7:06pm 8 13 mph 1014.8mb 65f 75f
7:00pm 8 11 mph 1014.7mb 65f 75f
6:42pm 6 13 mph 1014.4mb 65f 76f
6:36pm 7 13 mph 1014.3mb 65f 76f
6:30pm 2 7 mph 1014.3mb 65f -
6:24pm 5 6 mph 1014.2mb 65f 71f
6:18pm 6 6 mph 1014.1mb 65f 71f
6:12pm 5 8 mph 1014.1mb 65f 72f
6:06pm 7 9 mph 1014.1mb 65f 72f
6:00pm 3 6 mph 1014mb 65f 71f
4:42pm 6 9 mph 1014mb 66f 72f
4:36pm 7 11 mph 1014mb 66f 70f
4:30pm 11 16 mph 1013.9mb 66f 71f
4:24pm 16 18 mph 1013.9mb 66f 71f
4:18pm 15 20 mph 1013.9mb 66f 70f
4:12pm 16 21 mph 1013.9mb 66f 70f
4:00pm 11 15 mph 1013.9mb 67f 70f
3:54pm 15 17 mph 1013.8mb 67f 70f
3:48pm 14 16 mph 1013.8mb 67f 70f
3:42pm 13 14 mph 1013.8mb - -
3:36pm 13 15 mph 1013.8mb 67f 71f
3:30pm 14 18 mph 1013.8mb 67f 71f
3:24pm 10 14 mph 1014mb 67f 70f
3:18pm 10 16 mph 1014mb 67f 71f
3:12pm 8 11 mph 1014mb 67f 70f
3:06pm 6 9 mph 1014.1mb 67f 70f
3:00pm 6 13 mph 1014.1mb 67f 70f
1:54pm 17 29 mph 1014.1mb 65f 80f
1:48pm 15 21 mph 1014.1mb 65f 80f
1:42pm 21 25 mph 1014.2mb 65f 80f
1:36pm 16 20 mph 1014.3mb 65f 76f
1:30pm 15 21 mph 1014.4mb 65f 73f
1:24pm 17 22 mph 1014.5mb 65f 74f
1:18pm 10 17 mph 1014.7mb 65f 73f
1:12pm 13 16 mph 1014.8mb 65f 73f
1:06pm 14 17 mph 1014.9mb 65f 74f
1:00pm 5 11 mph 1015.1mb 65f 72f
12:54pm 6 8 mph 1015.2mb 65f 73f
12:48pm 5 8 mph 1015.3mb 65f -
12:42pm 7 11 mph 1015.4mb 65f 72f
12:36pm 8 11 mph 1015.4mb 65f 72f
12:30pm 7 10 mph 1015.5mb 65f 71f
12:24pm 6 8 mph 1015.7mb 65f 72f
12:18pm 6 8 mph 1015.8mb 65f 71f
12:12pm 8 9 mph 1015.9mb 65f 70f
12:06pm 3 6 mph 1015.9mb 65f 71f
12:00pm 3 8 mph 1015.8mb 65f 71f
11:54am 3 7 mph 1015.9mb 65f 71f
11:48am 3 7 mph 1015.9mb 64f 73f
11:42am 1 7 mph 1016mb 64f 74f
11:36am 6 7 mph 1016mb 64f 73f
11:30am 7 8 mph 1016.1mb 64f 73f
11:24am 8 8 mph 1016.2mb 64f 72f
11:18am 8 8 mph 1016.2mb 64f 72f
11:12am 8 9 mph 1016.2mb 64f 73f
11:06am 7 9 mph 1016.1mb 63f 73f
11:00am 7 7 mph 1016.2mb 63f 71f
10:54am 7 8 mph 1016.3mb 63f 72f
10:48am 6 6 mph 1016.4mb 63f 72f
10:42am 5 7 mph 1016.4mb 62f 71f
10:36am 7 8 mph 1016.5mb 63f 72f
10:30am 8 11 mph 1016.5mb 62f 71f
10:24am 9 11 mph 1016.6mb 62f 70f
10:18am 9 10 mph 1016.6mb 63f 70f
10:12am 8 10 mph 1016.5mb 63f 70f
10:06am 8 10 mph 1016.6mb 64f 71f
10:00am 9 11 mph 1016.6mb 65f 71f
9:54am 8 10 mph 1016.6mb 65f 71f
9:48am 5 7 mph 1016.6mb 65f 71f
9:42am 6 9 mph 1016.7mb 65f 70f
9:36am 6 8 mph 1016.7mb 65f 70f
9:30am 5 8 mph 1016.7mb 65f 69f
9:24am 6 7 mph 1016.7mb 65f 69f
9:18am 6 8 mph 1016.7mb 65f -
9:12am 3 6 mph 1016.7mb 65f 69f
9:06am 2 3 mph 1016.6mb 65f 69f
9:00am 3 5 mph 1016.6mb 65f 69f
8:54am 1 3 mph 1016.6mb 65f 69f
8:48am 2 3 mph 1016.6mb 65f 68f
8:42am 3 8 mph 1016.5mb 65f 67f
8:36am 6 10 mph 1016.5mb 65f 67f
8:30am 8 11 mph 1016.5mb 65f 67f
8:24am 7 9 mph 1016.4mb 65f 67f
8:18am 7 10 mph 1016.5mb 65f 65f
8:12am 1 5 mph 1016.5mb 65f 64f
8:06am  -  6 mph 1016.6mb 65f 64f
8:00am 1 7 mph 1016.5mb 65f 64f
7:54am 1 2 mph 1016.5mb 65f 64f
7:48am 2 2 mph 1016.6mb 64f 64f
7:42am 2 2 mph 1016.5mb 64f 64f
7:36am  -  1 mph 1016.5mb 64f 64f
7:30am  -  2 mph 1016.4mb 63f 63f
7:24am 3 5 mph 1016.4mb 63f 62f
7:18am 1 2 mph 1016.3mb 64f 62f
7:12am  -  2 mph 1016.3mb 64f 62f
7:06am 1 2 mph 1016.3mb 64f 62f
7:00am 2 3 mph 1016.2mb 64f 62f
6:54am 2 3 mph 1016.1mb 65f 63f
6:48am 3 5 mph 1016mb 65f 63f
6:42am 5 6 mph 1016mb 65f 63f
6:36am 3 5 mph 1016mb 65f 63f
6:30am 2 3 mph 1015.9mb 65f 63f
6:24am 5 7 mph 1015.8mb 65f 63f
6:18am 6 8 mph 1015.8mb 65f 63f
6:12am 7 9 mph 1015.7mb 65f 63f
6:06am 8 10 mph 1015.8mb 65f 63f
6:00am 8 10 mph 1015.6mb 65f 64f
5:42am 6 13 mph 1015.4mb 65f 64f
5:36am 8 11 mph 1015.4mb 65f 64f
5:30am 10 15 mph 1015.4mb 65f 64f
5:24am 13 14 mph 1015.3mb 65f 64f
5:18am 9 10 mph 1015.3mb 65f 64f
5:12am 8 10 mph 1015.3mb 65f 64f
5:06am 8 10 mph 1015.2mb 65f 64f
5:00am 7 9 mph 1015.2mb 65f 64f
4:54am 6 8 mph 1015.2mb 65f 64f
4:48am 5 6 mph 1015.2mb 65f 64f
4:42am 5 6 mph 1015.2mb 65f 63f
4:36am 6 6 mph 1015.3mb 65f 63f
4:30am 5 6 mph 1015.2mb 65f 63f
4:24am 3 5 mph 1015.1mb 65f 63f
4:18am 3 5 mph 1015.2mb 65f 63f
4:12am 3 3 mph 1015.2mb 65f 64f
4:06am 3 5 mph 1015.2mb 65f 64f
4:00am 3 5 mph 1015.2mb 65f 64f
3:54am 2 2 mph 1015.1mb 65f 64f
3:48am 1 1 mph 1015.1mb 65f 64f
3:42am 1 2 mph 1015.2mb 65f 64f
3:36am 1 3 mph 1015.3mb 65f 64f
3:30am 2 3 mph 1015.4mb 65f 64f
3:24am 3 5 mph 1015.4mb 65f 64f
3:18am 5 5 mph 1015.4mb - -
3:12am 5 6 mph 1015.5mb 65f 64f
3:06am 3 6 mph 1015.4mb 65f 64f
3:00am 5 7 mph 1015.5mb 65f 64f
2:54am 6 7 mph 1015.5mb 65f 64f
2:48am 7 7 mph 1015.5mb 65f 64f
2:42am 6 7 mph 1015.5mb 65f 64f
2:36am 5 6 mph 1015.4mb 65f 64f
2:30am 6 6 mph 1015.4mb 65f 64f
2:24am 5 6 mph 1015.5mb 65f 64f
2:18am 6 7 mph 1015.5mb 65f -
2:12am 5 6 mph 1015.6mb 65f 64f
2:06am 6 7 mph 1015.5mb 65f 64f
2:00am 6 7 mph 1015.5mb 65f 64f
1:12am 7 8 mph 1015.4mb 65f 65f
1:06am 6 7 mph 1015.4mb 65f 65f
1:00am 6 7 mph 1015.4mb 65f 65f
12:54am 6 8 mph 1015.4mb 65f 65f
12:48am 7 7 mph 1015.4mb 65f 65f
12:42am 5 6 mph 1015.3mb 65f 65f
12:36am 5 6 mph 1015.2mb 65f 65f
12:30am 5 5 mph 1015.2mb 65f 65f
12:24am 3 5 mph 1015.1mb 65f 65f
12:18am 2 5 mph 1015.2mb 65f 65f
12:12am 3 6 mph 1015.2mb 65f 65f
12:06am 3 5 mph 1015.2mb 65f 65f
12:00am 5 6 mph 1015.1mb 65f 65f
Sun 10/14 11:12pm 5 5 mph 1015.1mb 65f 65f
11:06pm 3 5 mph 1015.1mb 65f 65f
11:00pm 5 6 mph 1015mb 65f 65f
10:54pm 3 6 mph 1015mb 65f 65f
10:48pm 5 5 mph 1015.1mb 65f 65f
10:42pm 3 3 mph 1015.1mb - -
10:36pm 3 5 mph 1015mb - -
10:30pm 3 5 mph 1014.9mb - -
10:24pm 3 6 mph 1014.8mb 65f 66f
10:18pm 6 6 mph 1014.7mb 65f 66f
10:12pm 6 7 mph 1014.7mb 64f 66f
10:06pm 6 7 mph 1014.6mb 63f 66f
10:00pm 5 6 mph 1014.5mb 63f 66f
9:54pm 5 6 mph 1014.5mb 64f 66f
9:48pm 5 6 mph 1014.5mb 65f -
9:42pm 6 6 mph 1014.5mb 65f 66f
9:36pm 6 7 mph 1014.5mb 65f 66f
9:30pm 7 7 mph 1014.5mb 65f 66f
9:24pm 6 6 mph 1014.4mb 65f 66f
9:18pm 5 7 mph 1014.4mb 65f 66f
9:12pm 6 7 mph 1014.4mb 65f 66f
9:06pm 6 7 mph 1014.3mb 65f 66f
9:00pm 6 7 mph 1014.3mb 65f 66f
8:18pm 6 8 mph 1014.2mb - -
8:12pm 7 7 mph 1014.2mb 66f 67f
8:06pm 7 8 mph 1014.2mb 66f 67f
8:00pm 7 8 mph 1014.1mb 66f 67f
7:12pm 7 8 mph 1013.8mb 63f 67f
7:06pm 8 8 mph 1013.8mb 63f 67f
7:00pm 8 10 mph 1013.7mb 63f 67f
6:54pm 8 9 mph 1013.7mb 63f 67f
6:48pm 8 10 mph 1013.6mb 63f 67f
6:42pm 9 9 mph 1013.5mb 64f 66f
6:36pm 8 10 mph 1013.4mb 64f 67f
6:30pm 8 10 mph 1013.3mb 64f 67f
6:24pm 8 10 mph 1013.2mb 64f 67f
6:18pm 9 10 mph 1013.2mb 64f 67f
6:12pm 8 10 mph 1013.2mb 64f 67f
6:06pm 9 10 mph 1013.1mb 64f 67f
6:00pm 8 10 mph 1013.1mb 64f 67f
5:54pm 9 10 mph 1013mb 64f 67f
5:48pm 9 10 mph 1013mb 64f 67f
5:42pm 9 11 mph 1013mb 64f 67f
5:36pm 8 10 mph 1013mb 65f 67f
5:30pm 9 10 mph 1013mb - -
5:24pm 9 11 mph 1013mb 65f 67f
5:18pm 9 11 mph 1013mb 65f 67f
5:12pm 8 10 mph 1013mb 65f 68f
5:06pm 8 10 mph 1013mb 65f 68f
5:00pm 8 10 mph 1013mb 64f 68f
4:54pm 9 10 mph 1013mb 64f 68f
4:48pm 8 11 mph 1013mb 64f 68f
4:42pm 9 10 mph 1013mb 64f 68f
4:36pm 8 11 mph 1013mb 64f 68f
4:30pm 9 11 mph 1013.1mb 64f 68f
4:24pm 8 10 mph 1013.1mb 65f 68f
4:18pm 7 10 mph 1013.1mb 65f 68f
4:12pm 9 11 mph 1013.2mb 65f 68f
4:06pm 8 10 mph 1013.2mb 65f 68f
4:00pm 8 11 mph 1013.2mb 65f 68f
3:54pm 9 11 mph 1013.2mb 65f 68f
3:48pm 7 9 mph 1013.2mb 65f 69f
3:42pm 8 11 mph 1013.2mb 65f 69f
3:36pm 8 11 mph 1013.2mb 65f 69f
3:30pm 8 11 mph 1013.2mb 66f 68f
3:24pm 8 10 mph 1013.3mb 66f 68f
3:18pm 9 10 mph 1013.2mb 66f -
3:12pm 9 10 mph 1013.2mb 66f 68f
3:06pm 9 11 mph 1013.2mb 66f 68f
3:00pm 7 10 mph 1013.2mb 66f 69f
2:54pm 8 10 mph 1013.2mb 66f 69f
2:48pm 7 9 mph 1013.2mb 66f 69f
2:42pm 7 9 mph 1013.2mb 66f 69f
2:36pm 6 8 mph 1013.2mb 67f 69f
2:30pm 7 8 mph 1013.2mb 67f 68f
2:24pm 6 8 mph 1013.3mb 67f 69f
2:18pm 6 7 mph 1013.3mb 67f 69f
2:12pm 6 8 mph 1013.3mb 66f 69f
2:06pm 6 7 mph 1013.3mb 66f 69f
2:00pm 3 6 mph 1013.3mb 66f 70f
1:54pm 2 5 mph 1013.4mb 66f 69f
1:48pm 5 5 mph 1013.5mb 66f 68f
1:42pm 3 6 mph 1013.6mb 66f 69f
1:36pm 3 6 mph 1013.7mb 66f 69f
1:30pm 5 6 mph 1013.8mb 66f 69f
1:24pm 3 5 mph 1013.8mb 66f 69f
1:18pm 3 6 mph 1013.9mb - -
1:12pm 3 5 mph 1014mb 66f 68f
1:06pm 5 6 mph 1014mb 66f 68f
1:00pm 3 5 mph 1014mb 65f 68f
12:54pm 3 6 mph 1014.1mb 65f 68f
12:48pm 5 6 mph 1014.1mb 65f 67f
12:42pm 5 6 mph 1014.2mb 65f 68f
12:36pm 5 6 mph 1014.2mb 65f 68f
12:30pm 5 6 mph 1014.3mb 65f 68f
12:24pm 3 6 mph 1014.4mb 65f 68f
12:18pm 5 6 mph 1014.5mb 65f -
12:12pm 5 6 mph 1014.5mb 65f 67f
12:06pm 5 6 mph 1014.5mb 65f 67f
12:00pm 5 6 mph 1014.5mb 65f 67f
11:54am 5 6 mph 1014.6mb 65f 67f
11:48am 5 6 mph 1014.6mb 65f 67f
11:42am 5 6 mph 1014.6mb 65f 66f
11:36am 5 6 mph 1014.7mb 65f 66f
11:30am 6 7 mph 1014.7mb 65f 66f
11:24am 6 7 mph 1014.7mb 65f 66f
11:18am 7 7 mph 1014.8mb 65f 66f
11:12am 7 7 mph 1014.8mb 66f 66f
11:06am 6 7 mph 1014.8mb 66f 66f
11:00am 7 7 mph 1014.9mb 66f 66f
10:54am 6 7 mph 1014.9mb 65f 66f
10:48am 6 7 mph 1014.9mb 65f 66f
10:42am 6 7 mph 1014.9mb 65f 66f
10:36am 5 6 mph 1014.9mb 65f 66f
10:30am 5 6 mph 1014.9mb 65f 66f
10:24am 5 6 mph 1014.9mb 65f 66f
10:18am 5 6 mph 1014.9mb 65f 66f
10:12am 3 3 mph 1014.8mb 65f 66f
10:06am 3 3 mph 1014.8mb 65f 66f
10:00am 3 3 mph 1014.8mb 64f 66f
9:54am 3 3 mph 1014.8mb 64f 66f
9:48am 2 3 mph 1014.8mb 64f 66f
9:42am 2 3 mph 1014.7mb 64f 66f
9:36am 2 2 mph 1014.7mb 64f 66f
9:30am 2 3 mph 1014.7mb 64f 66f
9:24am 3 3 mph 1014.7mb 64f 66f
9:18am 2 3 mph 1014.7mb 65f 66f
9:12am 2 2 mph 1014.7mb 65f 66f
9:06am 1 2 mph 1014.6mb 65f 66f
9:00am  -  1 mph 1014.6mb 65f 67f
8:54am  -  1 mph 1014.5mb 65f 66f
8:48am  -  1 mph 1014.5mb 65f 66f
8:42am 1 1 mph 1014.4mb 65f 66f
8:36am  -  1 mph 1014.3mb 65f 66f
8:30am  -  2 mph 1014.3mb 65f 66f
8:24am  -  2 mph 1014.2mb 65f 66f
8:18am 2 3 mph 1014.1mb 65f 65f
8:12am 2 3 mph 1014mb 65f 65f
8:06am 3 3 mph 1014mb 65f 65f
8:00am 3 3 mph 1014mb 65f 65f
7:54am 3 5 mph 1013.9mb 65f 64f
7:48am 3 5 mph 1013.8mb 65f 64f
7:42am 5 5 mph 1013.8mb 65f 64f
7:36am 2 2 mph 1013.7mb 65f 64f
7:30am 1 2 mph 1013.6mb 65f 64f
7:24am  -  1 mph 1013.6mb 65f 64f
7:18am  -  1 mph 1013.5mb 65f 64f
7:12am 1 2 mph 1013.3mb 65f 64f
7:06am 2 3 mph 1013.3mb 65f 64f
7:00am 3 5 mph 1013.2mb 65f 63f
6:12am 1 2 mph 1012.8mb 62f 63f
6:06am 2 2 mph 1012.8mb 62f 63f
6:00am 2 2 mph 1012.8mb 62f 63f
5:54am  -  3 mph 1012.7mb 63f 63f
5:48am 2 3 mph 1012.6mb 63f 63f
5:42am 2 3 mph 1012.6mb 63f 63f
5:30am 2 2 mph 1012.5mb 64f 63f
5:24am 2 5 mph 1012.5mb 64f 63f
5:18am 3 5 mph 1012.5mb 64f 63f
5:12am 5 6 mph 1012.4mb 64f 63f
5:06am 6 6 mph 1012.4mb 64f 63f
5:00am 6 6 mph 1012.4mb 64f 63f
4:54am 5 6 mph 1012.3mb 65f 63f
4:48am 6 7 mph 1012.3mb 65f 63f
4:42am 6 7 mph 1012.2mb 65f 63f
4:36am 5 6 mph 1012.2mb 65f 63f
4:30am 3 6 mph 1012.1mb 66f 63f
4:24am 5 6 mph 1012.1mb 66f 63f
4:18am 5 6 mph 1012.1mb 66f 63f
4:12am 3 5 mph 1012.1mb 66f 63f
4:06am 3 3 mph 1012.1mb 66f 63f
4:00am 2 3 mph 1012.1mb 66f 63f
3:00am  -  1 mph 1012.5mb 66f 63f
1:54am 2 3 mph 1012.5mb 66f 64f
1:48am 2 3 mph - - -
1:42am 2 3 mph 1012.5mb 66f 63f
1:36am 3 5 mph 1012.5mb 66f 63f
1:30am 5 6 mph 1012.5mb 66f 62f
1:24am 5 5 mph 1012.4mb 66f 62f
1:18am 3 5 mph 1012.4mb 66f 62f
1:12am 5 6 mph 1012.3mb 66f 62f
1:06am 5 5 mph 1012.3mb 66f 62f
1:00am 2 2 mph 1012.3mb 66f 63f
12:54am  -  3 mph 1012.3mb 66f 63f
12:48am 2 2 mph 1012.3mb - -
12:42am 2 2 mph 1012.3mb 66f 63f
12:36am 2 2 mph 1012.3mb 66f 63f
12:30am 2 2 mph 1012.4mb 65f 63f
12:24am 2 3 mph 1012.4mb 65f 62f
12:18am 2 3 mph 1012.4mb 65f 63f
12:12am  -  2 mph 1012.5mb 65f 63f
12:06am  -  0 mph 1012.5mb 65f 63f
12:00am  -  1 mph 1012.5mb 65f 63f
Sat 10/13 11:54pm  -  1 mph 1012.5mb 65f 63f
11:48pm  -  1 mph 1012.5mb 65f 63f
11:42pm 2 3 mph 1012.5mb 66f 63f
11:36pm 3 3 mph 1012.4mb 66f 63f
11:30pm 3 3 mph 1012.4mb 66f 64f
11:24pm 2 6 mph 1012.5mb 66f 65f
11:18pm 5 6 mph 1012.5mb 66f 65f
11:12pm 5 6 mph 1012.5mb 66f 64f
11:06pm 5 6 mph 1012.5mb 66f 64f
11:00pm 6 6 mph 1012.6mb 66f 64f
10:54pm 5 6 mph 1012.6mb 66f 64f
10:48pm 5 7 mph - - -
10:42pm 6 7 mph 1012.5mb 66f 65f
10:36pm 5 6 mph 1012.5mb 66f 64f
10:30pm 2 3 mph 1012.5mb 66f 64f
10:24pm 2 3 mph 1012.5mb 66f 64f
10:18pm 1 3 mph 1012.6mb 66f 64f
10:12pm 3 5 mph 1012.6mb 67f 64f
10:06pm  -  2 mph 1012.6mb 67f 64f
10:00pm  -  2 mph 1012.6mb 67f 64f
9:54pm 1 2 mph 1012.6mb 66f 64f
9:48pm 2 3 mph - - -
9:42pm 2 3 mph 1012.5mb 66f 65f
9:36pm 2 3 mph 1012.4mb 66f 65f
9:30pm 2 5 mph - - -
9:24pm 3 5 mph 1012.3mb 65f 65f
9:18pm 5 5 mph 1012.3mb 63f 65f
9:12pm 3 3 mph 1012.2mb 63f 65f
9:06pm 2 5 mph 1012.2mb 63f 65f
9:00pm 3 5 mph 1012.1mb 63f 65f
8:54pm 2 5 mph 1012.1mb 63f 65f
8:48pm 3 5 mph 1012mb 64f 65f
8:42pm 5 6 mph 1012mb 64f 66f
8:36pm 3 6 mph 1012mb 64f 66f
8:30pm 6 6 mph - - -
8:24pm 5 5 mph 1012mb 65f 66f
8:18pm 3 5 mph 1012.1mb 65f 66f
8:12pm 5 5 mph 1012.1mb 65f 66f
8:06pm 3 5 mph 1012.1mb 66f 66f
8:00pm 3 5 mph 1012.1mb 67f 65f
7:54pm 5 6 mph 1012.1mb 67f 66f
7:48pm 5 6 mph 1012.1mb 67f 66f
7:42pm 5 6 mph 1012.2mb 67f 66f
7:36pm 5 6 mph 1012.2mb 67f 66f
7:30pm 6 7 mph 1012.1mb 67f 66f
7:24pm 7 8 mph 1012mb 67f 66f
7:18pm 7 9 mph 1012mb 67f 66f
7:12pm 8 8 mph 1012mb 67f 66f
7:06pm 7 8 mph 1011.9mb 67f 66f
7:00pm 7 8 mph 1011.9mb 67f 66f
6:54pm 7 8 mph 1011.9mb 67f 66f
6:48pm 7 8 mph 1011.9mb 67f 66f
6:42pm 7 7 mph 1011.8mb 67f 66f
6:36pm 7 7 mph 1011.7mb 67f 66f
6:30pm 6 7 mph 1011.7mb 67f 66f
6:24pm 5 7 mph 1011.6mb 67f 66f
6:18pm 6 7 mph 1011.5mb 67f 66f
6:12pm 6 6 mph 1011.5mb 67f 66f
6:06pm 6 6 mph 1011.5mb 67f 66f
6:00pm 5 7 mph 1011.5mb 67f 66f
5:42pm 6 10 mph 1011.5mb 66f 65f
5:36pm 7 8 mph 1011.5mb 66f 65f
5:30pm 6 7 mph 1011.5mb 67f 66f
5:24pm 7 8 mph 1011.5mb 66f 65f
5:18pm 7 9 mph 1011.5mb 66f 65f
5:12pm 8 9 mph 1011.5mb 65f 66f
5:06pm 8 10 mph 1011.5mb 65f 65f
5:00pm 9 10 mph 1011.5mb 65f 66f
4:54pm 9 10 mph 1011.5mb 65f 65f
4:48pm 10 11 mph 1011.5mb 65f 65f
4:42pm 10 11 mph 1011.5mb 65f 65f
4:36pm 8 10 mph 1011.5mb 66f 65f
4:30pm 8 9 mph 1011.4mb 67f 65f
4:24pm 9 10 mph 1011.4mb 67f 65f
4:18pm 9 10 mph 1011.5mb 67f 66f
4:12pm 9 10 mph 1011.6mb 67f 66f
4:06pm 8 10 mph 1011.6mb 67f 66f
4:00pm 9 11 mph 1011.5mb 67f 65f
3:12pm 7 9 mph 1011.3mb 67f 65f
3:06pm 7 9 mph 1011.4mb 67f 65f
3:00pm 7 9 mph 1011.4mb 67f 65f
2:54pm 9 10 mph 1011.4mb 67f 65f
2:48pm 8 9 mph 1011.4mb 67f 65f
2:42pm 8 9 mph 1011.4mb 67f 65f
2:36pm 6 8 mph 1011.4mb 67f 65f
2:30pm 6 7 mph 1011.4mb 67f 65f
2:24pm 7 9 mph 1011.3mb 67f 65f
2:18pm 8 10 mph 1011.3mb 67f 65f
2:12pm 7 10 mph 1011.3mb 67f 65f
2:06pm 7 9 mph 1011.4mb 67f 65f
2:00pm 7 8 mph 1011.4mb 67f 65f
1:54pm 8 10 mph 1011.4mb 67f 65f
1:48pm 9 11 mph 1011.4mb 67f 64f
1:42pm 8 10 mph 1011.5mb 67f 65f
1:36pm 9 11 mph 1011.6mb 67f 65f
1:30pm 10 10 mph 1011.6mb 67f 65f
1:24pm 8 10 mph 1011.8mb 67f 65f
1:18pm 9 11 mph 1011.9mb 66f 65f
1:12pm 9 11 mph 1011.9mb 66f 65f
1:06pm 9 11 mph 1011.9mb 66f 64f
1:00pm 10 11 mph - - -
12:54pm 9 11 mph 1012.1mb 66f 65f
12:48pm 9 9 mph 1012.1mb 67f 65f
12:42pm 8 10 mph 1012.1mb 67f 65f
12:36pm 9 11 mph 1012.1mb 67f 65f
12:30pm 10 13 mph 1012.2mb 67f 65f
12:24pm 9 13 mph 1012.2mb 67f 65f
12:18pm 10 13 mph 1012.3mb 66f 65f
12:12pm 10 13 mph 1012.4mb 66f 65f
12:06pm 10 13 mph 1012.4mb 66f 65f
12:00pm 8 10 mph 1012.5mb 66f 65f
11:54am 9 11 mph 1012.5mb 66f 65f
11:48am 8 9 mph 1012.6mb 66f 65f
11:42am 6 8 mph 1012.7mb 66f 64f
11:36am 6 8 mph 1012.6mb 66f 64f
11:30am 7 8 mph 1012.7mb 66f 64f
11:24am 8 9 mph 1012.7mb 66f 64f
11:18am 7 9 mph 1012.8mb 66f 64f
11:12am 7 11 mph 1012.8mb 66f 64f
11:06am 11 13 mph 1012.8mb 66f 64f
11:00am 13 14 mph 1012.8mb 66f 64f
10:54am 11 16 mph 1012.9mb 66f 64f
10:48am 10 14 mph 1012.9mb 65f 64f
10:42am 13 15 mph 1012.9mb 65f 64f
10:36am 14 14 mph 1012.8mb 65f 65f
10:30am 9 13 mph 1012.9mb 65f 65f
10:24am 8 11 mph 1013mb 65f 65f
10:18am 5 8 mph 1013mb - -
10:12am 6 7 mph 1013mb 65f 65f
10:06am 5 7 mph 1013mb 64f 65f
10:00am 3 6 mph 1013mb 64f 65f
9:54am 5 6 mph 1012.9mb 64f 65f
9:48am 6 7 mph 1012.9mb 64f 65f
9:36am 3 5 mph 1012.8mb 62f 65f
9:30am 2 3 mph 1012.8mb 62f 65f
9:24am 2 3 mph 1012.8mb 61f 65f
9:18am 3 5 mph 1012.8mb 61f 65f
9:12am 3 5 mph 1012.9mb 62f 65f
9:06am 3 5 mph 1012.9mb 62f 65f
9:00am 5 6 mph 1012.8mb 62f 65f
7:54am 3 5 mph 1012.3mb 66f 64f
7:48am 3 6 mph 1012.2mb 65f 64f
7:42am 3 5 mph 1012.2mb 65f 63f
7:36am 3 5 mph 1012.1mb 65f 63f
7:30am 2 3 mph 1012.1mb 65f 63f
7:24am 3 5 mph 1012mb 65f 63f
7:12am 5 6 mph 1011.8mb 65f 63f
7:06am 5 7 mph 1011.7mb 65f 63f
7:00am 7 8 mph 1011.6mb 65f 62f
6:54am 6 7 mph 1011.5mb 66f 62f
6:48am 5 7 mph 1011.4mb - -
6:42am 6 8 mph 1011.4mb 65f 62f
6:36am 6 7 mph 1011.3mb 65f 62f
6:30am 6 6 mph 1011.3mb 65f 62f
6:24am 5 6 mph 1011.2mb 65f 62f
6:12am 2 5 mph 1011mb 65f 62f
6:06am 5 6 mph 1011mb 64f 62f
6:00am 5 6 mph 1010.9mb 64f 62f
5:54am 5 7 mph 1010.9mb 64f 62f
5:48am 6 7 mph 1010.9mb 64f 62f
5:42am 6 7 mph 1010.8mb 64f 62f
5:36am 6 7 mph 1010.8mb 64f 62f
5:30am 6 7 mph 1010.8mb 65f 62f
5:24am 5 7 mph 1010.5mb 65f 62f
5:18am 6 7 mph 1010.4mb 65f 62f
5:12am 6 7 mph 1010.5mb 65f 62f
5:06am 6 7 mph 1010.4mb 65f 62f
5:00am 5 6 mph 1010.4mb 65f 62f
4:54am 6 7 mph 1010.4mb 64f 62f
4:48am 6 7 mph 1010.4mb 64f 62f
4:42am 6 8 mph 1010.3mb 64f 63f
4:36am 6 8 mph 1010.3mb 64f 63f
4:30am 6 7 mph 1010.2mb 64f 63f
4:24am 5 6 mph 1010.3mb 64f 63f
4:12am 3 5 mph 1010.3mb 63f 63f
4:06am 2 5 mph 1010.3mb 64f 63f
4:00am 5 5 mph 1010.3mb 64f 63f
3:54am 3 5 mph 1010.3mb 64f 63f
3:42am 5 6 mph 1010.5mb 66f 63f
3:36am 2 3 mph 1010.5mb 66f 63f
3:18am 3 5 mph 1010.6mb 66f 62f
3:12am 1 1 mph 1010.7mb 67f 63f
3:06am  -  2 mph 1010.7mb 67f 63f
3:00am 1 2 mph 1010.7mb 67f 63f
2:54am 1 2 mph 1010.7mb 67f 63f
2:48am 2 3 mph 1010.7mb 67f 62f
2:42am 2 3 mph 1010.7mb 67f 63f
2:36am 2 5 mph 1010.8mb 67f 63f
2:30am 5 7 mph 1010.8mb 67f 63f
2:24am 3 5 mph 1010.9mb 67f 63f
2:18am 3 5 mph 1010.9mb 67f 63f
2:12am 5 6 mph 1010.9mb 67f 63f
2:06am 2 3 mph 1010.9mb 67f 63f
2:00am 2 6 mph 1011mb 67f 63f
1:54am 6 6 mph 1011mb 67f 63f
1:48am 6 8 mph 1011mb 67f 62f
1:42am 8 10 mph 1011mb 67f 61f
1:36am 8 9 mph 1011.1mb 67f 61f
1:30am 7 9 mph 1011.2mb 67f 61f
1:24am 7 8 mph 1011.1mb 67f 61f
1:18am 7 7 mph 1011.1mb 67f 62f
1:06am 8 10 mph 1011.3mb 67f 62f
1:00am 7 9 mph 1011.4mb 67f 61f
12:18am 6 7 mph 1011.1mb 67f -
12:12am 6 7 mph 1011.1mb 67f 64f
12:06am 5 7 mph 1011.1mb 67f 63f
12:00am 7 8 mph 1011.2mb 67f 63f
Fri 10/12 11:36pm 3 5 mph 1011.2mb 67f 64f
11:30pm 3 3 mph 1011mb 67f 64f
11:24pm 5 7 mph 1011mb 67f 64f
11:18pm 3 6 mph 1011.1mb 67f 64f
11:12pm  -  2 mph 1010.9mb 67f 64f
11:06pm 3 7 mph 1011mb 67f 64f
11:00pm 7 8 mph 1011.2mb 67f 64f
10:54pm 5 6 mph 1011.1mb 67f 64f
10:48pm 3 6 mph 1011mb 67f 64f
10:42pm 5 6 mph 1010.9mb 67f -
10:36pm 3 6 mph 1010.9mb 67f -
10:30pm 6 7 mph 1011mb 67f -
10:24pm 7 8 mph 1011mb 67f 64f
10:18pm 6 8 mph 1010.9mb 67f 64f
10:12pm 2 5 mph 1010.7mb 67f 65f
10:06pm 3 5 mph 1010.8mb 67f 65f
10:00pm 5 5 mph 1010.9mb 67f 65f
9:54pm 2 2 mph 1010.7mb 67f 65f
9:48pm 1 2 mph 1010.6mb 67f 64f
9:42pm 1 2 mph 1010.6mb 67f 64f
9:36pm  -  1 mph 1010.5mb 67f 64f
9:30pm  -  1 mph 1010.6mb 67f 64f
9:24pm 1 2 mph 1010.6mb 67f 64f
9:18pm 2 3 mph 1010.5mb 67f 64f
9:12pm 3 5 mph 1010.5mb 67f 64f
9:06pm 3 5 mph 1010.5mb 67f 64f
9:00pm 5 6 mph 1010.4mb 67f 64f
8:12pm  -  3 mph 1010.2mb 67f 65f
8:06pm 2 5 mph 1009.9mb 67f 65f
8:00pm 3 3 mph 1009.8mb 67f 66f
7:54pm 1 2 mph 1010mb 67f 66f
7:48pm 2 5 mph 1010mb 67f 65f
7:42pm 5 8 mph 1009.9mb 67f 65f
7:36pm 8 11 mph 1009.8mb 67f 65f
7:30pm 10 14 mph 1009.7mb 67f 65f
7:24pm 13 14 mph 1009.6mb 67f 66f
7:18pm 11 13 mph 1009.3mb 67f 67f
7:12pm 6 8 mph 1009.3mb 67f 67f
7:06pm 6 7 mph 1008.9mb 67f 67f
7:00pm 6 7 mph 1009mb 67f 67f
6:18pm 6 8 mph 1008.8mb 67f -
6:12pm 6 8 mph 1008.6mb 67f 67f
6:06pm 7 8 mph 1008.6mb 67f 67f
6:00pm 6 8 mph 1008.5mb 67f 67f
5:54pm 7 8 mph 1008.5mb 67f 67f
5:48pm 6 8 mph 1008.4mb 67f 67f
5:42pm 7 8 mph 1008.3mb 67f 67f
5:36pm 7 9 mph 1008.3mb 67f 67f
5:30pm 7 9 mph 1008.2mb 67f 67f
5:24pm 7 9 mph 1008.2mb 67f 67f
5:18pm 7 10 mph 1008.1mb 67f -
5:12pm 9 10 mph 1008mb 67f 67f
5:06pm 8 9 mph 1007.9mb 67f 67f
5:00pm 7 9 mph 1007.8mb 67f 68f
4:42pm 9 10 mph 1007.7mb 67f 67f
4:36pm 7 10 mph 1007.7mb 67f 68f
4:30pm 8 9 mph 1007.7mb 67f 68f
4:24pm 8 10 mph 1007.6mb 67f 68f
4:18pm 8 11 mph 1007.6mb - -
4:12pm 9 11 mph 1007.6mb 67f 67f
4:00pm 9 11 mph 1007.4mb 67f 67f
3:54pm 10 13 mph 1007.5mb 67f 68f
3:48pm 9 13 mph 1007.5mb 67f 68f
3:42pm 11 14 mph 1007.5mb 67f 68f
3:36pm 10 13 mph 1007.4mb 67f 68f
3:30pm 9 11 mph 1007.4mb 67f -
3:24pm 10 13 mph 1007.4mb 67f 67f
3:18pm 11 14 mph 1007.4mb 67f 67f
3:12pm 10 14 mph 1007.3mb 67f 67f
3:00pm 11 15 mph - - -
2:54pm 13 15 mph 1007.2mb 67f 67f
2:48pm 13 15 mph 1007.2mb 67f 67f
2:42pm 11 14 mph 1007.2mb 67f 67f
2:36pm 10 14 mph 1007.2mb 67f 67f
2:30pm 11 14 mph 1007.2mb 67f 68f
2:24pm 11 15 mph 1007.3mb 67f 68f
2:18pm 9 11 mph 1007.3mb 67f 68f
2:12pm 10 11 mph 1007.3mb 67f 68f
2:00pm 10 11 mph 1007.4mb 67f 68f
1:54pm 10 13 mph 1007.5mb 67f 68f
1:48pm 9 13 mph 1007.6mb 67f 68f
1:42pm 10 13 mph 1007.6mb 67f 68f
1:36pm 9 11 mph 1007.8mb 67f 68f
1:30pm 10 13 mph 1007.8mb 67f 68f
1:24pm 8 11 mph 1007.9mb 67f 68f
1:18pm 9 13 mph 1008mb 67f 68f
1:12pm 10 11 mph 1008mb 67f 68f
1:00pm 10 14 mph - - -
12:54pm 10 14 mph 1008.2mb 67f 69f
12:48pm 8 9 mph 1008.3mb 66f 69f
12:42pm 8 9 mph 1008.4mb 66f 69f
12:36pm 7 8 mph 1008.5mb 66f 70f
12:30pm  -  1 mph - - -
12:24pm  -  1 mph 1008.6mb 66f 73f
12:18pm  -  1 mph 1008.7mb 66f 72f
12:12pm  -  1 mph 1008.7mb 66f 73f
12:00pm  -  1 mph 1008.8mb 67f 72f
11:54am  -  1 mph 1008.9mb 67f 72f
11:48am  -  1 mph 1008.9mb 66f 71f
11:42am  -  2 mph 1008.9mb 66f 71f
11:36am 2 2 mph 1008.9mb 66f 70f
11:30am  -  1 mph 1009mb 66f 72f
11:24am  -  2 mph 1009mb 66f 71f
11:18am 1 2 mph 1009mb 66f 70f
11:12am  -  1 mph 1009.1mb 66f 71f
11:00am  -  1 mph 1009.1mb 66f 74f
10:54am  -  1 mph 1009.2mb 66f 73f
10:48am  -  1 mph 1009.3mb 66f 72f
10:42am  -  2 mph 1009.2mb 66f 70f
10:36am  -  2 mph 1009.3mb 66f 69f
10:30am 2 2 mph 1009.2mb 66f 69f
10:24am 1 3 mph 1009.2mb 66f 68f
10:18am 2 3 mph 1009.2mb 66f 66f
10:12am 3 3 mph 1009.3mb 66f 66f
10:06am 2 3 mph 1009.3mb 65f 67f
10:00am  -  3 mph 1009.4mb 65f 67f
9:54am 3 5 mph 1009.4mb 65f 66f
9:48am 5 7 mph 1009.3mb 66f 65f
9:42am 5 6 mph 1009.4mb 65f 65f
9:36am 5 6 mph 1009.4mb 65f 65f
9:30am 3 5 mph 1009.5mb 65f 65f
9:24am 3 5 mph 1009.5mb 65f 65f
9:18am 5 6 mph 1009.5mb 65f 66f
9:12am 5 6 mph 1009.5mb 65f 66f
9:06am 3 5 mph 1009.5mb 64f 66f
9:00am 2 3 mph 1009.5mb - -
8:54am 1 2 mph 1009.5mb 64f 70f
8:48am  -  1 mph 1009.4mb 63f 74f
8:42am  -  0 mph 1009.3mb 64f 74f
8:36am  -  0 mph 1009.3mb 64f 74f
8:30am  -  0 mph 1009.3mb 64f 72f
8:24am  -  1 mph 1009.2mb 64f 72f
8:18am  -  1 mph 1009.2mb 64f 70f
8:12am 1 1 mph 1009.1mb 64f 67f
8:06am  -  2 mph 1009mb 64f 67f
8:00am 2 2 mph - - -
7:54am 1 2 mph 1008.9mb 65f 65f
7:48am 2 2 mph 1008.9mb 65f 65f
7:42am  -  1 mph 1008.8mb 66f 65f
7:36am  -  1 mph 1008.8mb 66f 65f
7:30am 1 2 mph 1008.8mb 66f 63f
7:24am 2 2 mph 1008.7mb 66f 63f
7:18am 2 3 mph 1008.7mb 66f 62f
7:12am 2 3 mph 1008.7mb 66f 62f
7:06am 3 3 mph 1008.6mb 66f 62f
7:00am 1 2 mph 1008.6mb 66f 62f
6:54am  -  2 mph 1008.7mb 65f 62f
6:48am 1 2 mph 1008.5mb 65f 62f
6:42am  -  1 mph 1008.4mb 65f 62f
6:36am 1 2 mph 1008.4mb 65f 63f
6:30am 1 2 mph 1008.4mb 65f 62f
6:24am 1 2 mph 1008.4mb 65f 62f
6:18am 1 2 mph 1008.3mb 64f 63f
6:12am 1 2 mph 1008.4mb 64f 64f
6:06am  -  5 mph 1008.3mb 65f 64f
6:00am 5 6 mph 1008.3mb 65f 64f
5:54am 5 6 mph 1008.2mb 64f 64f
5:48am 3 5 mph 1008.2mb 64f 64f
5:42am 3 3 mph 1008.1mb 63f 63f
5:36am  -  1 mph 1008.2mb 64f 62f